Penryn, Pennsylvania
Current Conditions -  °F | °C
As of 10:53 AM on Thursday 18 Dec 2014 (Local Time) from KLNS Reporting Station
Overcast Overcast  
Wind Chill: -5°   Ceiling: 3300
Heat Index:   Visibility: 10mi
Dew Point: -4°   Wind: 16mph
Humidity: 70%   Direction: 280°W
Pressure: 30.1"   Gusts: NA
Location:  40.2°N, 76.37°W
Report Text: KLNS 181553Z 28014KT 10SM OVC033 01/M04 A3010 RMK AO2 SLP195 T00061044
Loading
Personal Weather Stations






























Interactive Weather Map New forecast layout! Learn more

10-Day Weather Forecast

Advertisements
Track Severe Weather on mobile